Terminal Aerodrome Forecast
Issued by NWS Charleston, WV

Current Version | Previous Version | Graphics & Text | Print | Product List | Glossary Off
Versions: 1 2 3 4 5 6 7 8 9 10 11 12 13 14 15 16 17 18 19 20 21 22 23 24 25 26

000
FTUS41 KRLX 281725
TAFEKN
TAF
KEKN 281725Z 2818/2918 28006KT P6SM VCTS SCT040CB
     FM282200 VRB03KT P6SM SCT045
     FM290500 00000KT 5SM BR SCT045
     FM290700 00000KT 1/4SM FG VV001
     FM291200 00000KT 3SM BR BKN003
     FM291300 00000KT P6SM SCT030
     FM291600 VRB03KT P6SM VCTS SCT035CB=

USA.gov is the U.S. government's official web portal to all federal, state and local government web resources and services.